Kalgoorlie-Boulder, Western Australia

02:55 PM AWST am 26. Oktober 2014 (GMT +0800)
Kalgoorlie-Boulder | Change Station
CLOSE
Current Station
Flughafen
Location: Kalgoorlie-Boulder,
Höhe: 1204 ft
Wetterstationen in der Umgebung

Höhe 1204 ft 30.78 °S, 121.45 °E | Updated 25 minutes ago

Clear
Heiter
79 °F
gefühlte 79 °F
N
14
Wind Wechselnd Wind aus Süd-Südwest

Heute
Max. -- | schwach -- °F
--% Regenrisiko
Gestern
Max. -- | schwach -- °F
Precip. -- inch
5:04 AM 6:12 PM
Erstes Viertel, 6% visible
Druck 30.06 inch
Sichtweite -9999.0 Meilen
Wolken
Taupunkt 34 °F
Feuchtigkeit 20%
Regen 0.00 inch
Schneehöhe Nicht verfügbar..
UV Nicht verfügbar..
Pollen Nicht verfügbar..
Luftqualität Nicht verfügbar..
Flu Activity Nicht verfügbar..
METAR YPKG 260630Z 21012KT CAVOK 26/01 Q1018

More Conditions Fewer Conditions

Druck 30.06 inch
Sichtweite -9999.0 Meilen
Wolken
Taupunkt 34 °F
Feuchtigkeit 20%
Regen 0.00 inch
Schneehöhe Nicht verfügbar..
UV Nicht verfügbar..
Pollen Nicht verfügbar..
Luftqualität Nicht verfügbar..
Flu Activity Nicht verfügbar..
METAR YPKG 260630Z 21012KT CAVOK 26/01 Q1018

More Conditions Fewer Conditions

10-Day Weather Forecast

Almanac

Astronomie

Oct. 26, 2014 Aufgang Untergang
Genaue Zeit 05:04 AWST 18:12 AWST
Bürgerliche Dämmerung 04:39 AWST 18:37 AWST
Nautische Dämmerung 04:09 AWST 19:07 AWST
Astronomische Dämmerung 03:38 AWST 19:38 AWST
Mond 06:38 AWST 20:29 AWST
Länge des sichtbaren Lichts 13h 58m
Tageslänge
13h 08m
Tomorrow will be 1m 44s longer.
Erstes Viertel, 6% of the Moon is Illuminated
Heute
Erstes Viertel
Okt 30
Erstes Viertel
Nov 6
Vollmond
Nov 14
Letztes Viertel
Nov 22
Neu

Gestrige Extrema

Country Highs Country Lows

Community

WunderPhotos

Upload Photos

1,765,117 Fotos hochgeladen!

Nearby

Schneehöhe

Not available.

Erdbebenaktivität

Stadt Distance Mag. Time & Date
No recent earthquake activity has been reported nearby.
Minimum magnitude displayed is 2.5.

küstennahe Wassertemperaturen

Ort Temperatur
Kein Stationsbericht

Wetterstationen in der Umgebung